Time;durP1;ratioP1;P1;durP2;ratioP2;P2;SDS_P1;SDS_P2;PMS_P1;PMS_P2;Temp;Humidity;BMP_temperature;BMP_pressure;BME280_temperature;BME280_humidity;BME280_pressure;Samples;Min_cycle;Max_cycle;Signal;HPM_P1;HPM_P2
2022/04/15 00:00:15;;;;;;;0.97;0.70;;;10.30;99.90;;;;;;4843904;29;20960;-58
2022/04/15 00:02:46;;;;;;;0.67;0.50;;;10.10;99.90;;;;;;4835295;29;20487;-58
2022/04/15 00:05:34;;;;;;;1.87;0.70;;;10.00;99.90;;;;;;4844166;29;20470;-58
2022/04/15 00:08:06;;;;;;;0.40;0.40;;;9.90;99.90;;;;;;4841626;29;20502;-58
2022/04/15 00:10:39;;;;;;;0.90;0.63;;;9.90;99.90;;;;;;4836424;29;20814;-59
2022/04/15 00:13:12;;;;;;;0.70;0.67;;;9.90;99.90;;;;;;4846982;29;20480;-59
2022/04/15 00:15:43;;;;;;;0.53;0.53;;;10.10;99.90;;;;;;4848359;29;20483;-59
2022/04/15 00:18:14;;;;;;;0.60;0.60;;;10.00;99.90;;;;;;4849719;29;20507;-58
2022/04/15 00:20:46;;;;;;;0.80;0.80;;;9.80;99.90;;;;;;4833701;29;20670;-58
2022/04/15 00:23:18;;;;;;;0.80;0.80;;;9.70;99.90;;;;;;4836221;29;20459;-58
2022/04/15 00:25:48;;;;;;;0.60;0.60;;;9.50;99.90;;;;;;4843906;29;20468;-57
2022/04/15 00:28:19;;;;;;;0.90;0.90;;;9.40;99.90;;;;;;4833835;29;20459;-59
2022/04/15 00:30:50;;;;;;;1.17;1.07;;;9.10;99.90;;;;;;4841852;29;20442;-58
2022/04/15 00:33:22;;;;;;;0.90;0.90;;;8.90;99.90;;;;;;4849207;29;20462;-59
2022/04/15 00:35:54;;;;;;;2.85;0.85;;;8.90;99.90;;;;;;4844221;29;20505;-59
2022/04/15 00:38:26;;;;;;;1.00;0.90;;;8.60;99.90;;;;;;4844292;29;20289;-59
2022/04/15 00:40:56;;;;;;;1.92;1.17;;;8.00;99.90;;;;;;4839307;29;20490;-59
2022/04/15 00:43:27;;;;;;;1.67;1.00;;;7.40;99.90;;;;;;4848764;29;20205;-62
2022/04/15 00:46:08;;;;;;;2.45;1.00;;;7.00;99.90;;;;;;4837639;29;20224;-60
2022/04/15 00:48:39;;;;;;;1.08;0.93;;;6.90;99.90;;;;;;4844069;29;20266;-59
2022/04/15 00:51:12;;;;;;;1.80;1.20;;;6.70;99.90;;;;;;4839110;29;20214;-59
2022/04/15 00:53:46;;;;;;;1.98;1.35;;;6.30;99.90;;;;;;4839343;29;20209;-62
2022/04/15 00:56:17;;;;;;;3.47;1.45;;;6.20;99.90;;;;;;4842229;29;20225;-61
2022/04/15 00:58:49;;;;;;;2.03;1.83;;;6.10;99.90;;;;;;4842062;29;20198;-64
2022/04/15 01:01:20;;;;;;;1.90;1.80;;;6.10;99.90;;;;;;4843955;29;20204;-62
2022/04/15 01:03:54;;;;;;;2.13;1.92;;;6.00;99.90;;;;;;4848433;29;20206;-64
2022/04/15 01:06:30;;;;;;;1.80;1.70;;;6.10;99.90;;;;;;4849333;29;20513;-62
2022/04/15 01:09:03;;;;;;;2.75;1.60;;;6.10;99.90;;;;;;4842156;29;20245;-62
2022/04/15 01:11:36;;;;;;;1009.75;152.95;;;6.20;99.90;;;;;;4847300;29;20528;-58
2022/04/15 01:14:08;;;;;;;1447.32;251.88;;;6.20;99.90;;;;;;4845708;29;20214;-55
2022/04/15 01:16:39;;;;;;;2.22;2.03;;;6.20;99.90;;;;;;4844878;29;20213;-59
2022/04/15 01:19:10;;;;;;;2.17;1.80;;;6.10;99.90;;;;;;4844267;29;20224;-59
2022/04/15 01:21:43;;;;;;;2.80;2.45;;;6.10;99.90;;;;;;4834705;29;20240;-57
2022/04/15 01:24:16;;;;;;;2.10;1.95;;;6.20;99.90;;;;;;4843542;29;20210;-56
2022/04/15 01:26:46;;;;;;;3.00;2.17;;;6.30;99.90;;;;;;4843328;29;20214;-57
2022/04/15 01:29:17;;;;;;;3.13;2.40;;;6.30;99.90;;;;;;4842722;29;20213;-56
2022/04/15 01:31:48;;;;;;;2.10;2.00;;;6.20;99.90;;;;;;4847321;29;20196;-54
2022/04/15 01:34:19;;;;;;;3.00;1.95;;;6.10;99.90;;;;;;4844335;29;20205;-59
2022/04/15 01:36:52;;;;;;;1.45;1.35;;;6.20;99.90;;;;;;4840240;29;20206;-59
2022/04/15 01:39:25;;;;;;;1.67;1.58;;;6.20;99.90;;;;;;4846167;29;20233;-56
2022/04/15 01:42:00;;;;;;;1.20;1.20;;;6.20;99.90;;;;;;4849912;29;20217;-60
2022/04/15 01:44:31;;;;;;;1.50;1.40;;;6.10;99.90;;;;;;4850769;29;20215;-60
2022/04/15 01:47:01;;;;;;;8.95;3.47;;;6.20;99.90;;;;;;4840189;29;20213;-63
2022/04/15 01:49:32;;;;;;;14.55;3.53;;;6.20;99.90;;;;;;4842340;29;20202;-60
2022/04/15 01:52:05;;;;;;;1.50;1.40;;;6.30;99.90;;;;;;4842592;29;20224;-60
2022/04/15 01:54:38;;;;;;;1.42;1.30;;;6.30;99.90;;;;;;4847777;29;20227;-60
2022/04/15 01:57:15;;;;;;;1.05;1.05;;;6.30;99.90;;;;;;4849793;29;20213;-60
2022/04/15 01:59:46;;;;;;;1.88;1.40;;;6.20;99.90;;;;;;4842765;29;20245;-60
2022/04/15 02:02:16;;;;;;;1.10;1.10;;;6.20;99.90;;;;;;4848148;29;20217;-60
2022/04/15 02:04:48;;;;;;;1.00;1.00;;;6.20;99.90;;;;;;4850346;29;20229;-60
2022/04/15 02:07:19;;;;;;;1.30;1.20;;;6.20;99.90;;;;;;4846760;29;20224;-62
2022/04/15 02:09:51;;;;;;;2.50;2.30;;;6.20;99.90;;;;;;4846769;29;20221;-61
2022/04/15 02:12:22;;;;;;;5.85;5.32;;;6.30;99.90;;;;;;4846238;29;20213;-61
2022/04/15 02:14:53;;;;;;;3.83;3.53;;;6.30;99.90;;;;;;4849430;29;20205;-61
2022/04/15 02:17:23;;;;;;;2.10;1.90;;;6.20;99.90;;;;;;4845121;29;20645;-61
2022/04/15 02:19:54;;;;;;;1.80;1.70;;;6.30;99.90;;;;;;4844638;29;20575;-64
2022/04/15 02:22:25;;;;;;;1.10;1.10;;;6.20;99.90;;;;;;4851444;29;20205;-59
2022/04/15 02:24:57;;;;;;;2.92;1.40;;;6.20;99.90;;;;;;4849870;29;20680;-59
2022/04/15 02:27:28;;;;;;;3.03;1.58;;;6.20;99.90;;;;;;4848955;29;20670;-57
2022/04/15 02:29:59;;;;;;;4.20;2.80;;;6.20;99.90;;;;;;4849716;29;20550;-58
2022/04/15 02:32:32;;;;;;;3.88;3.45;;;6.20;99.90;;;;;;4840312;29;20237;-59
2022/04/15 02:35:03;;;;;;;2.95;2.75;;;6.20;99.90;;;;;;4839955;29;20210;-59
2022/04/15 02:37:34;;;;;;;1.77;1.67;;;6.20;99.90;;;;;;4850595;29;20221;-55
2022/04/15 02:40:08;;;;;;;1.90;1.80;;;6.20;99.90;;;;;;4845043;29;20285;-56
2022/04/15 02:42:39;;;;;;;3.08;2.80;;;6.20;99.90;;;;;;4847024;29;20294;-54
2022/04/15 02:45:10;;;;;;;10.30;7.45;;;6.10;99.90;;;;;;4839722;29;20613;-57
2022/04/15 02:47:42;;;;;;;1.88;1.75;;;6.00;99.90;;;;;;4839119;29;20312;-57
2022/04/15 02:50:13;;;;;;;1.65;1.55;;;5.90;99.90;;;;;;4835597;29;20206;-58
2022/04/15 02:52:43;;;;;;;1.75;1.55;;;5.80;99.90;;;;;;4839810;29;20217;-58
2022/04/15 02:55:16;;;;;;;2.05;1.85;;;5.90;99.90;;;;;;4844347;29;20236;-57
2022/04/15 02:57:47;;;;;;;6.45;5.05;;;5.80;99.90;;;;;;4833962;29;20210;-58
2022/04/15 03:00:18;;;;;;;2.85;2.65;;;5.80;99.90;;;;;;4839903;29;20251;-58
2022/04/15 03:02:49;;;;;;;2.40;2.05;;;5.80;99.90;;;;;;4852007;29;20201;-56
2022/04/15 03:05:20;;;;;;;3.45;3.15;;;5.80;99.90;;;;;;4849807;29;20666;-58
2022/04/15 03:07:51;;;;;;;5.78;3.53;;;5.90;99.90;;;;;;4849006;29;20248;-58
2022/04/15 03:10:25;;;;;;;3.28;3.00;;;5.80;99.90;;;;;;4851506;29;20588;-57
2022/04/15 03:12:55;;;;;;;3.00;2.80;;;5.80;99.90;;;;;;4850047;29;20206;-58
2022/04/15 03:15:26;;;;;;;2.90;2.70;;;5.80;99.90;;;;;;4851196;29;20217;-58
2022/04/15 03:17:57;;;;;;;4.13;3.65;;;5.80;99.90;;;;;;4848383;29;20209;-56
2022/04/15 03:20:28;;;;;;;3.20;2.90;;;5.80;99.90;;;;;;4833592;29;20234;-57
2022/04/15 03:22:59;;;;;;;7.00;3.95;;;5.80;99.90;;;;;;4833143;29;20274;-57
2022/04/15 03:25:32;;;;;;;3.80;3.42;;;5.70;99.90;;;;;;4833343;29;20222;-56
2022/04/15 03:28:03;;;;;;;4.07;3.70;;;5.60;99.90;;;;;;4848410;29;20220;-57
2022/04/15 03:30:33;;;;;;;4.35;3.95;;;5.50;99.90;;;;;;4844398;29;20266;-56
2022/04/15 03:33:04;;;;;;;10.60;7.07;;;5.50;99.90;;;;;;4844413;29;20208;-57
2022/04/15 03:35:35;;;;;;;4.85;4.40;;;5.40;99.90;;;;;;4850851;29;20221;-57
2022/04/15 03:38:07;;;;;;;4.45;4.15;;;5.50;99.90;;;;;;4833212;29;20206;-56
2022/04/15 03:40:39;;;;;;;4.88;4.40;;;5.50;99.90;;;;;;4839972;29;20244;-57
2022/04/15 03:43:10;;;;;;;6.57;4.93;;;5.50;99.90;;;;;;4849669;29;20218;-58
2022/04/15 03:45:41;;;;;;;5.18;4.78;;;5.50;99.90;;;;;;4835497;29;20206;-57
2022/04/15 03:48:11;;;;;;;4.93;4.45;;;5.50;99.90;;;;;;4850689;29;20572;-57
2022/04/15 03:50:42;;;;;;;5.75;5.25;;;5.50;99.90;;;;;;4851095;29;20554;-56
2022/04/15 03:53:13;;;;;;;5.00;4.60;;;5.60;99.90;;;;;;4838853;29;20221;-56
2022/04/15 03:55:46;;;;;;;5.57;5.07;;;5.60;99.90;;;;;;4833583;29;20210;-56
2022/04/15 03:58:16;;;;;;;6.25;5.65;;;5.60;99.90;;;;;;4847739;29;20213;-57
2022/04/15 04:00:50;;;;;;;5.20;4.80;;;5.70;99.90;;;;;;4835971;29;20247;-57
2022/04/15 04:03:20;;;;;;;5.30;4.80;;;5.70;99.90;;;;;;4833139;29;20368;-57
2022/04/15 04:05:54;;;;;;;4.47;4.07;;;5.40;99.90;;;;;;4833201;29;20209;-56
2022/04/15 04:08:26;;;;;;;5.35;4.85;;;5.40;99.90;;;;;;4844609;29;20244;-57
2022/04/15 04:10:58;;;;;;;5.03;4.28;;;5.50;99.90;;;;;;4832944;29;20397;-56
2022/04/15 04:13:29;;;;;;;4.05;3.75;;;5.40;99.90;;;;;;4831738;29;20578;-58
2022/04/15 04:16:00;;;;;;;5.05;4.50;;;5.30;99.90;;;;;;4847947;29;20220;-58
2022/04/15 04:18:31;;;;;;;4.35;4.00;;;5.30;99.90;;;;;;4838070;29;20254;-57
2022/04/15 04:21:01;;;;;;;4.95;4.53;;;5.20;99.90;;;;;;4840082;29;20248;-58
2022/04/15 04:23:32;;;;;;;4.75;4.30;;;5.10;99.90;;;;;;4832601;29;20248;-57
2022/04/15 04:26:05;;;;;;;5.38;4.85;;;5.00;99.90;;;;;;4847216;29;20214;-57
2022/04/15 04:28:35;;;;;;;4.90;4.50;;;5.10;99.90;;;;;;4831931;29;20206;-56
2022/04/15 04:31:06;;;;;;;6.38;5.78;;;5.00;99.90;;;;;;4833016;29;20227;-55
2022/04/15 04:33:37;;;;;;;6.25;5.65;;;4.90;99.90;;;;;;4833097;29;20210;-55
2022/04/15 04:36:11;;;;;;;7.13;6.40;;;4.90;99.90;;;;;;4847626;29;20220;-57
2022/04/15 04:38:42;;;;;;;7.50;6.80;;;4.90;99.90;;;;;;4832403;29;20218;-57
2022/04/15 04:41:14;;;;;;;7.38;6.22;;;4.80;99.90;;;;;;4832390;29;20233;-58
2022/04/15 04:43:45;;;;;;;6.25;5.75;;;4.70;99.90;;;;;;4845264;29;20201;-56
2022/04/15 04:46:16;;;;;;;5.30;4.80;;;4.70;99.90;;;;;;4832941;29;20213;-58
2022/04/15 04:48:53;;;;;;;6.22;5.70;;;4.70;99.90;;;;;;4840495;29;20201;-57
2022/04/15 04:51:23;;;;;;;5.97;5.47;;;4.60;99.90;;;;;;4839756;29;20210;-57
2022/04/15 04:53:54;;;;;;;6.05;5.43;;;4.40;99.90;;;;;;4847474;29;20589;-57
2022/04/15 04:56:27;;;;;;;6.00;5.45;;;4.40;99.90;;;;;;4849059;29;20206;-58
2022/04/15 04:58:58;;;;;;;6.32;5.82;;;4.40;99.90;;;;;;4849487;29;20224;-57
2022/04/15 05:01:29;;;;;;;6.90;6.25;;;4.30;99.90;;;;;;4849782;29;20221;-57
2022/04/15 05:04:00;;;;;;;6.15;5.55;;;4.30;99.90;;;;;;4843842;29;20208;-58
2022/04/15 05:06:31;;;;;;;6.82;6.22;;;4.20;99.90;;;;;;4844367;29;20217;-57
2022/04/15 05:09:01;;;;;;;7.63;6.85;;;4.10;99.90;;;;;;4841628;29;20245;-55
2022/04/15 05:11:34;;;;;;;7.20;6.53;;;4.20;99.90;;;;;;4848328;29;20228;-57
2022/04/15 05:14:05;;;;;;;7.20;6.60;;;4.20;99.90;;;;;;4849361;29;20216;-58
2022/04/15 05:16:36;;;;;;;7.53;6.82;;;4.30;99.90;;;;;;4848922;29;20626;-55
2022/04/15 05:19:07;;;;;;;8.43;7.50;;;4.30;99.90;;;;;;4851401;29;20209;-53
2022/04/15 05:21:40;;;;;;;8.20;7.32;;;4.40;99.90;;;;;;4851014;29;20225;-56
2022/04/15 05:24:14;;;;;;;9.60;8.63;;;4.40;99.90;;;;;;4848765;29;20227;-58
2022/04/15 05:26:47;;;;;;;9.85;8.88;;;4.40;99.90;;;;;;4848227;29;20210;-57
2022/04/15 05:29:18;;;;;;;9.73;8.82;;;4.50;99.90;;;;;;4847879;29;20193;-57
2022/04/15 05:31:48;;;;;;;9.05;8.25;;;4.50;99.90;;;;;;4849683;29;20201;-57
2022/04/15 05:34:20;;;;;;;9.80;8.90;;;4.50;99.90;;;;;;4843881;29;20259;-57
2022/04/15 05:36:51;;;;;;;10.25;9.32;;;4.50;99.90;;;;;;4853250;29;20205;-56
2022/04/15 05:39:21;;;;;;;10.05;9.15;;;4.50;99.90;;;;;;4847587;29;20247;-57
2022/04/15 05:41:54;;;;;;;12.02;10.82;;;4.40;99.90;;;;;;4843488;29;20237;-57
2022/04/15 05:44:24;;;;;;;10.60;9.50;;;4.40;99.90;;;;;;4833979;29;20210;-58
2022/04/15 05:46:55;;;;;;;10.25;9.35;;;4.40;99.90;;;;;;4835852;29;20206;-56
2022/04/15 05:49:26;;;;;;;11.45;9.77;;;4.40;99.90;;;;;;4852114;29;20218;-57
2022/04/15 05:51:57;;;;;;;10.68;9.57;;;4.40;99.90;;;;;;4844004;29;20233;-57
2022/04/15 05:54:28;;;;;;;10.27;9.27;;;4.40;99.90;;;;;;4851995;29;20442;-56
2022/04/15 05:57:00;;;;;;;12.13;10.93;;;4.40;99.90;;;;;;4851528;29;20214;-57
2022/04/15 05:59:31;;;;;;;11.80;9.93;;;4.40;99.90;;;;;;4840996;29;20642;-57
2022/04/15 06:02:02;;;;;;;11.90;10.70;;;4.40;99.90;;;;;;4853077;29;20229;-56
2022/04/15 06:04:32;;;;;;;10.25;9.25;;;4.30;99.90;;;;;;4850698;29;20205;-56
2022/04/15 06:07:03;;;;;;;10.73;9.57;;;4.40;99.90;;;;;;4842681;29;20582;-56
2022/04/15 06:09:34;;;;;;;9.90;9.00;;;4.40;99.90;;;;;;4847085;29;20237;-57
2022/04/15 06:12:13;;;;;;;11.73;10.52;;;4.40;99.90;;;;;;4849439;29;20213;-57
2022/04/15 06:14:44;;;;;;;11.90;10.80;;;4.40;99.90;;;;;;4842118;29;20278;-56
2022/04/15 06:17:16;;;;;;;10.95;9.95;;;4.40;99.90;;;;;;4848211;29;20221;-57
2022/04/15 06:19:47;;;;;;;11.80;10.60;;;4.40;99.90;;;;;;4846052;29;20221;-56
2022/04/15 06:22:18;;;;;;;11.63;10.52;;;4.50;99.90;;;;;;4844091;29;20234;-56
2022/04/15 06:24:48;;;;;;;10.48;9.43;;;4.50;99.90;;;;;;4843951;29;20221;-56
2022/04/15 06:27:21;;;;;;;10.80;9.55;;;4.60;99.90;;;;;;4838600;29;20226;-57
2022/04/15 06:29:52;;;;;;;12.07;10.10;;;4.60;99.90;;;;;;4843462;29;20230;-57
2022/04/15 06:32:22;;;;;;;11.27;10.25;;;4.70;99.90;;;;;;4851229;29;20209;-55
2022/04/15 06:34:53;;;;;;;9.70;8.75;;;4.70;99.90;;;;;;4847482;29;20209;-55
2022/04/15 06:37:24;;;;;;;10.00;9.15;;;4.70;99.90;;;;;;4835561;29;20214;-56
2022/04/15 06:39:55;;;;;;;12.02;10.98;;;4.80;99.90;;;;;;4835687;29;20306;-54
2022/04/15 06:42:30;;;;;;;10.60;9.50;;;4.70;99.90;;;;;;4850864;29;20241;-57
2022/04/15 06:45:01;;;;;;;10.88;9.80;;;4.70;99.90;;;;;;4849749;29;20246;-57
2022/04/15 06:47:32;;;;;;;11.70;9.90;;;4.80;99.90;;;;;;4837699;29;20213;-57
2022/04/15 06:50:02;;;;;;;10.40;9.40;;;4.70;99.90;;;;;;4842742;29;20221;-56
2022/04/15 06:52:34;;;;;;;10.55;9.52;;;4.60;99.90;;;;;;4851949;29;20210;-57
2022/04/15 06:55:06;;;;;;;10.20;9.20;;;4.70;99.90;;;;;;4843043;29;20615;-57
2022/04/15 06:57:38;;;;;;;11.05;9.63;;;4.70;99.90;;;;;;4837208;29;20193;-56
2022/04/15 07:00:11;;;;;;;10.18;9.18;;;4.70;99.90;;;;;;4845594;29;20743;-56
2022/04/15 07:02:42;;;;;;;11.43;10.32;;;4.60;99.90;;;;;;4849612;29;20236;-57
2022/04/15 07:05:13;;;;;;;10.57;9.57;;;4.60;99.90;;;;;;4839982;29;20212;-56
2022/04/15 07:07:44;;;;;;;11.20;10.30;;;4.50;99.90;;;;;;4838092;29;20213;-52
2022/04/15 07:10:15;;;;;;;11.05;10.05;;;4.50;99.90;;;;;;4839458;29;20217;-55
2022/04/15 07:12:48;;;;;;;10.70;9.60;;;4.50;99.90;;;;;;4844474;29;20201;-57
2022/04/15 07:15:23;;;;;;;11.88;10.77;;;4.40;99.90;;;;;;4839548;29;20223;-56
2022/04/15 07:17:55;;;;;;;10.90;9.80;;;4.40;99.90;;;;;;4842707;29;20258;-54
2022/04/15 07:20:26;;;;;;;11.73;10.63;;;4.30;99.90;;;;;;4850594;29;20765;-57
2022/04/15 07:23:01;;;;;;;12.23;11.02;;;4.30;99.90;;;;;;4841733;29;20230;-56
2022/04/15 07:25:33;;;;;;;12.85;10.63;;;4.30;99.90;;;;;;4837008;29;20788;-56
2022/04/15 07:28:06;;;;;;;12.77;11.60;;;4.20;99.90;;;;;;4845027;29;20198;-57
2022/04/15 07:30:37;;;;;;;12.10;10.85;;;4.20;99.90;;;;;;4845542;29;20213;-55
2022/04/15 07:33:08;;;;;;;11.57;10.35;;;4.10;99.90;;;;;;4844271;29;20229;-56
2022/04/15 07:35:38;;;;;;;12.93;11.57;;;4.00;99.90;;;;;;4847193;29;20214;-56
2022/04/15 07:38:10;;;;;;;11.82;10.63;;;3.80;99.90;;;;;;4840073;29;20206;-57
2022/04/15 07:40:41;;;;;;;14.43;12.23;;;3.80;99.90;;;;;;4843109;29;20213;-57
2022/04/15 07:43:13;;;;;;;12.63;11.00;;;3.80;99.90;;;;;;4847159;29;20239;-56
2022/04/15 07:45:44;;;;;;;14.98;11.30;;;3.80;99.90;;;;;;4849850;29;20202;-56
2022/04/15 07:48:15;;;;;;;13.50;11.45;;;3.70;99.90;;;;;;4845003;29;20237;-53
2022/04/15 07:50:46;;;;;;;12.05;10.73;;;3.60;99.90;;;;;;4837449;29;20220;-55
2022/04/15 07:53:16;;;;;;;15.88;14.15;;;3.70;99.90;;;;;;4850516;29;20276;-54
2022/04/15 07:55:47;;;;;;;14.00;12.07;;;3.60;99.90;;;;;;4845348;29;20209;-56
2022/04/15 07:58:20;;;;;;;13.30;11.80;;;3.50;99.90;;;;;;4834643;29;20205;-55
2022/04/15 08:00:51;;;;;;;14.20;12.70;;;3.50;99.90;;;;;;4846779;29;20901;-56
2022/04/15 08:03:23;;;;;;;14.57;11.80;;;3.50;99.90;;;;;;4849259;29;20247;-57
2022/04/15 08:05:54;;;;;;;14.02;12.57;;;3.50;99.90;;;;;;4840934;29;20202;-55
2022/04/15 08:08:25;;;;;;;15.68;12.50;;;3.40;99.90;;;;;;4844809;29;20233;-53
2022/04/15 08:10:55;;;;;;;16.23;13.00;;;3.40;99.90;;;;;;4845437;29;20222;-56
2022/04/15 08:13:28;;;;;;;13.07;11.57;;;3.30;99.90;;;;;;4848960;29;20205;-56
2022/04/15 08:15:59;;;;;;;15.40;13.15;;;3.30;99.90;;;;;;4843212;29;20281;-55
2022/04/15 08:18:30;;;;;;;11.93;10.70;;;3.30;99.90;;;;;;4843127;29;20304;-57
2022/04/15 08:21:01;;;;;;;15.80;12.73;;;3.20;99.90;;;;;;4840071;29;20209;-56
2022/04/15 08:23:32;;;;;;;13.18;11.88;;;3.10;99.90;;;;;;4835685;29;20327;-52
2022/04/15 08:26:03;;;;;;;16.58;13.45;;;3.10;99.90;;;;;;4840286;29;20323;-54
2022/04/15 08:28:35;;;;;;;13.02;11.68;;;3.10;99.90;;;;;;4846700;29;20202;-55
2022/04/15 08:31:07;;;;;;;13.25;11.57;;;3.10;99.90;;;;;;4843202;29;20224;-54
2022/04/15 08:33:39;;;;;;;16.05;13.40;;;3.00;99.90;;;;;;4840905;29;20221;-56
2022/04/15 08:36:09;;;;;;;13.05;11.70;;;2.90;99.90;;;;;;4837780;29;20210;-56
2022/04/15 08:38:41;;;;;;;14.05;12.13;;;2.90;99.90;;;;;;4839631;29;20214;-56
2022/04/15 08:41:15;;;;;;;16.15;13.57;;;2.90;99.90;;;;;;4853025;29;20228;-55
2022/04/15 08:43:48;;;;;;;13.75;12.32;;;2.90;99.90;;;;;;4846886;29;20234;-55
2022/04/15 08:46:21;;;;;;;15.88;12.02;;;2.80;99.90;;;;;;4841055;29;20213;-56
2022/04/15 08:48:53;;;;;;;14.02;12.10;;;2.80;99.90;;;;;;4840119;29;20277;-56
2022/04/15 08:51:24;;;;;;;15.35;12.63;;;2.70;99.90;;;;;;4845494;29;20221;-57
2022/04/15 08:53:56;;;;;;;15.90;11.77;;;2.70;99.90;;;;;;4840134;29;20202;-54
2022/04/15 08:56:26;;;;;;;11.85;10.65;;;2.60;99.90;;;;;;4839745;29;20194;-55
2022/04/15 08:58:59;;;;;;;14.05;11.70;;;2.60;99.90;;;;;;4842547;29;20226;-55
2022/04/15 09:01:30;;;;;;;12.57;10.35;;;2.70;99.90;;;;;;4851625;29;20205;-56
2022/04/15 09:04:02;;;;;;;13.63;11.82;;;2.60;99.90;;;;;;4845904;29;20252;-57
2022/04/15 09:06:33;;;;;;;13.75;11.60;;;2.60;99.90;;;;;;4851258;29;20238;-55
2022/04/15 09:09:06;;;;;;;11.70;10.55;;;2.50;99.90;;;;;;4853287;29;20233;-54
2022/04/15 09:11:38;;;;;;;13.05;11.07;;;2.40;99.90;;;;;;4843381;29;20288;-56
2022/04/15 09:14:12;;;;;;;13.68;11.38;;;2.40;99.90;;;;;;4841416;29;20198;-55
2022/04/15 09:16:45;;;;;;;12.73;10.68;;;2.40;99.90;;;;;;4853738;29;20211;-53
2022/04/15 09:19:16;;;;;;;14.77;11.20;;;2.40;99.90;;;;;;4837721;29;20224;-56
2022/04/15 09:21:53;;;;;;;11.43;10.20;;;2.40;99.90;;;;;;4848308;29;20209;-57
2022/04/15 09:24:31;;;;;;;11.82;10.18;;;2.30;99.90;;;;;;4836842;29;20705;-55
2022/04/15 09:27:05;;;;;;;13.02;10.25;;;2.40;99.90;;;;;;4837062;29;20221;-55
2022/04/15 09:29:38;;;;;;;13.50;11.55;;;2.30;99.90;;;;;;4852165;29;20193;-54
2022/04/15 09:32:11;;;;;;;11.40;9.43;;;2.30;99.90;;;;;;4841975;29;20262;-52
2022/04/15 09:34:55;;;;;;;12.43;10.20;;;2.30;99.90;;;;;;4842869;29;20213;-55
2022/04/15 09:37:29;;;;;;;12.25;10.65;;;2.30;99.90;;;;;;4848767;29;20220;-55
2022/04/15 09:40:08;;;;;;;14.80;11.27;;;2.20;99.90;;;;;;4843980;29;20210;-55
2022/04/15 09:42:44;;;;;;;14.80;10.63;;;2.10;99.90;;;;;;4847217;29;20220;-54
2022/04/15 09:45:19;;;;;;;13.00;10.77;;;2.10;99.90;;;;;;4840846;29;20230;-55
2022/04/15 09:47:57;;;;;;;12.85;10.07;;;2.10;99.90;;;;;;4841140;29;20195;-52
2022/04/15 09:50:30;;;;;;;16.00;11.32;;;2.10;99.90;;;;;;4834561;29;20243;-52
2022/04/15 09:53:10;;;;;;;13.85;11.43;;;2.00;99.90;;;;;;4837852;29;20587;-56
2022/04/15 09:55:43;;;;;;;13.15;10.20;;;2.00;99.90;;;;;;4850935;29;20216;-56
2022/04/15 09:58:15;;;;;;;12.05;10.63;;;1.90;99.90;;;;;;4839928;29;20210;-53
2022/04/15 10:00:51;;;;;;;15.77;10.75;;;1.90;99.90;;;;;;4849824;29;20654;-56
2022/04/15 10:03:23;;;;;;;11.45;10.18;;;1.90;99.90;;;;;;4851285;29;20209;-55
2022/04/15 10:05:55;;;;;;;14.93;11.95;;;1.80;99.90;;;;;;4843972;29;20674;-56
2022/04/15 10:08:27;;;;;;;14.05;11.48;;;1.80;99.90;;;;;;4849528;29;20245;-53
2022/04/15 10:10:59;;;;;;;12.82;10.85;;;1.90;99.90;;;;;;4851695;29;20213;-52
2022/04/15 10:13:29;;;;;;;15.43;12.30;;;1.90;99.90;;;;;;4845992;29;20206;-53
2022/04/15 10:16:03;;;;;;;15.73;12.35;;;1.90;99.90;;;;;;4845329;29;20285;-54
2022/04/15 10:18:34;;;;;;;14.35;12.52;;;1.80;99.90;;;;;;4849445;29;20665;-51
2022/04/15 10:21:06;;;;;;;16.10;13.30;;;1.80;99.90;;;;;;4851076;29;20245;-56
2022/04/15 10:23:37;;;;;;;12.88;10.98;;;1.80;99.90;;;;;;4851980;29;20214;-56
2022/04/15 10:26:08;;;;;;;15.30;12.18;;;1.80;99.90;;;;;;4842363;29;20213;-56
2022/04/15 10:28:44;;;;;;;17.05;13.35;;;1.70;99.90;;;;;;4839741;29;20230;-53
2022/04/15 10:31:17;;;;;;;14.25;11.57;;;1.80;99.90;;;;;;4843870;29;20213;-51
2022/04/15 10:33:51;;;;;;;15.60;13.02;;;1.70;99.90;;;;;;4851114;29;20194;-55
2022/04/15 10:36:23;;;;;;;13.35;10.68;;;1.60;99.90;;;;;;4849309;29;20634;-50
2022/04/15 10:39:14;;;;;;;14.30;11.82;;;1.60;99.90;;;;;;4850891;29;20224;-56
2022/04/15 10:42:05;;;;;;;15.15;12.80;;;1.60;99.90;;;;;;4848847;29;20209;-55
2022/04/15 10:44:39;;;;;;;13.13;11.30;;;1.60;99.90;;;;;;4850994;29;20748;-55
2022/04/15 10:47:29;;;;;;;14.60;11.60;;;1.50;99.90;;;;;;4837229;29;20655;-53
2022/04/15 10:50:03;;;;;;;13.20;11.80;;;1.30;99.90;;;;;;4834690;29;20210;-53
2022/04/15 10:52:35;;;;;;;12.82;11.13;;;1.30;99.90;;;;;;4833750;29;20701;-54
2022/04/15 10:55:07;;;;;;;13.85;12.27;;;1.40;99.90;;;;;;4838450;29;20230;-55
2022/04/15 10:57:40;;;;;;;12.77;11.40;;;1.40;99.90;;;;;;4836778;29;20223;-54
2022/04/15 11:03:22;;;;;;;11.93;10.73;;;1.40;99.90;;;;;;4849575;29;20252;-53
2022/04/15 11:05:58;;;;;;;14.27;12.02;;;1.30;99.90;;;;;;4847746;29;20225;-53
2022/04/15 11:08:47;;;;;;;14.85;11.68;;;1.40;99.90;;;;;;4835661;29;20244;-55
2022/04/15 11:11:18;;;;;;;15.82;13.80;;;1.40;99.90;;;;;;4848340;29;20273;-53
2022/04/15 11:14:03;;;;;;;16.95;14.15;;;1.50;99.90;;;;;;4840029;29;20212;-54
2022/04/15 11:16:48;;;;;;;16.88;12.60;;;1.40;99.90;;;;;;4837257;29;20239;-53
2022/04/15 11:19:26;;;;;;;13.73;12.20;;;1.40;99.90;;;;;;4834440;29;20202;-51
2022/04/15 11:21:57;;;;;;;15.82;12.77;;;1.50;99.90;;;;;;4833997;29;20236;-55
2022/04/15 11:24:30;;;;;;;14.43;12.10;;;1.50;99.90;;;;;;4842769;29;20202;-52
2022/04/15 11:27:03;;;;;;;12.95;10.85;;;1.50;99.90;;;;;;4836996;29;20205;-53
2022/04/15 11:29:35;;;;;;;13.93;11.38;;;1.50;99.90;;;;;;4848827;29;20240;-53
2022/04/15 11:32:08;;;;;;;13.48;11.32;;;1.60;99.90;;;;;;4834763;29;20565;-54
2022/04/15 11:34:42;;;;;;;16.48;11.18;;;1.60;99.90;;;;;;4841046;29;20216;-52
2022/04/15 11:37:13;;;;;;;11.98;10.40;;;1.60;99.90;;;;;;4847589;29;20228;-54
2022/04/15 11:39:47;;;;;;;14.48;11.80;;;1.50;99.90;;;;;;4834532;29;20218;-54
2022/04/15 11:42:18;;;;;;;18.73;12.25;;;1.60;99.90;;;;;;4841775;29;20206;-52
2022/04/15 11:44:49;;;;;;;15.02;12.15;;;1.60;99.90;;;;;;4842218;29;20230;-49
2022/04/15 11:47:21;;;;;;;13.40;11.73;;;1.50;99.90;;;;;;4844800;29;20212;-56
2022/04/15 11:49:53;;;;;;;14.60;11.90;;;1.50;99.90;;;;;;4843665;29;20190;-53
2022/04/15 11:52:26;;;;;;;13.52;11.20;;;1.40;99.90;;;;;;4850671;29;20213;-51
2022/04/15 11:54:58;;;;;;;12.80;11.35;;;1.40;99.90;;;;;;4843494;29;20281;-53
2022/04/15 11:57:31;;;;;;;12.30;10.40;;;1.50;99.90;;;;;;4833876;29;20201;-52
2022/04/15 12:00:02;;;;;;;12.82;10.32;;;1.60;99.90;;;;;;4835154;29;20225;-53
2022/04/15 12:02:33;;;;;;;15.70;12.18;;;1.70;99.90;;;;;;4832911;29;20213;-50
2022/04/15 12:05:06;;;;;;;16.15;12.48;;;1.70;99.90;;;;;;4834742;29;20300;-49
2022/04/15 12:07:37;;;;;;;17.33;11.88;;;1.80;99.90;;;;;;4846621;29;20229;-53
2022/04/15 12:10:09;;;;;;;18.42;12.55;;;1.90;99.90;;;;;;4843493;29;20237;-52
2022/04/15 12:12:42;;;;;;;18.08;12.95;;;2.00;99.90;;;;;;4846360;29;20210;-54
2022/04/15 12:15:13;;;;;;;45.65;18.52;;;2.00;99.90;;;;;;4843824;29;20222;-53
2022/04/15 12:17:45;;;;;;;17.05;13.43;;;2.10;99.90;;;;;;4845922;29;20610;-52
2022/04/15 12:20:17;;;;;;;21.60;15.80;;;2.10;99.90;;;;;;4847978;29;20194;-52
2022/04/15 12:22:48;;;;;;;18.83;13.40;;;2.10;99.90;;;;;;4839962;29;20205;-55
2022/04/15 12:25:20;;;;;;;17.40;14.40;;;2.10;99.90;;;;;;4842589;29;20241;-52
2022/04/15 12:27:53;;;;;;;17.75;12.85;;;2.10;99.90;;;;;;4835595;29;20202;-52
2022/04/15 12:30:42;;;;;;;18.83;13.63;;;2.10;99.90;;;;;;4838689;29;20221;-52
2022/04/15 12:33:12;;;;;;;17.52;12.25;;;2.10;99.90;;;;;;4850268;29;20314;-53
2022/04/15 12:36:03;;;;;;;18.83;14.25;;;2.10;99.90;;;;;;4836406;29;20253;-52
2022/04/15 12:39:00;;;;;;;19.10;13.50;;;2.10;99.90;;;;;;4846428;29;20209;-51
2022/04/15 12:41:49;;;;;;;16.45;13.40;;;2.10;99.90;;;;;;4843495;29;20197;-54
2022/04/15 12:44:23;;;;;;;16.10;12.63;;;2.00;99.90;;;;;;4845915;29;20217;-54
2022/04/15 12:47:00;;;;;;;16.70;12.75;;;2.00;99.90;;;;;;4839117;29;20240;-52
2022/04/15 12:49:32;;;;;;;15.93;13.50;;;2.00;99.90;;;;;;4843285;29;20210;-56
2022/04/15 12:52:12;;;;;;;15.60;13.00;;;2.00;99.90;;;;;;4849976;29;20217;-55
2022/04/15 12:55:06;;;;;;;15.18;12.45;;;2.00;99.90;;;;;;4844703;29;20213;-53
2022/04/15 12:57:39;;;;;;;14.20;11.95;;;2.10;99.90;;;;;;4837930;29;20228;-55
2022/04/15 13:00:12;;;;;;;13.27;10.95;;;2.10;99.90;;;;;;4848923;29;20216;-54
2022/04/15 13:02:43;;;;;;;15.02;12.38;;;2.10;99.90;;;;;;4846970;29;20311;-55
2022/04/15 13:05:14;;;;;;;13.52;10.80;;;2.10;99.90;;;;;;4848670;29;20293;-55
2022/04/15 13:07:49;;;;;;;16.67;11.57;;;2.00;99.90;;;;;;4836297;29;20218;-52
2022/04/15 13:10:20;;;;;;;14.18;11.18;;;2.00;99.90;;;;;;4833809;29;20250;-52
2022/04/15 13:13:12;;;;;;;13.27;10.40;;;2.00;99.90;;;;;;4842152;29;20205;-53
2022/04/15 13:15:47;;;;;;;14.25;11.90;;;2.00;99.90;;;;;;4839169;29;20206;-55